Time;durP1;ratioP1;P1;durP2;ratioP2;P2;SDS_P1;SDS_P2;PMS_P1;PMS_P2;Temp;Humidity;BMP_temperature;BMP_pressure;BME280_temperature;BME280_humidity;BME280_pressure;Samples;Min_cycle;Max_cycle;Signal;HPM_P1;HPM_P2
2022/09/26 00:01:20;;;;;;;;;1.50;1.50;;;;;17.00;40.51;100904.59;5059162;28;45222;-58
2022/09/26 00:03:48;;;;;;;;;1.00;0.75;;;;;16.96;40.45;100893.22;5059252;28;45384;-57
2022/09/26 00:06:18;;;;;;;;;1.00;1.00;;;;;16.95;40.28;100899.44;5059041;28;45541;-58
2022/09/26 00:08:45;;;;;;;;;1.00;1.00;;;;;16.94;40.70;100896.84;5040495;28;45556;-57
2022/09/26 00:11:17;;;;;;;;;1.75;1.00;;;;;16.88;40.50;100896.13;5059028;28;45479;-57
2022/09/26 00:13:43;;;;;;;;;1.00;1.00;;;;;16.86;40.35;100894.47;5041093;28;45304;-58
2022/09/26 00:16:10;;;;;;;;;1.00;1.00;;;;;16.83;40.54;100890.16;5059100;28;45591;-57
2022/09/26 00:18:36;;;;;;;;;1.75;1.75;;;;;16.80;40.53;100889.41;5062064;28;45876;-57
2022/09/26 00:21:09;;;;;;;;;3.00;1.00;;;;;16.77;40.44;100885.06;5062376;28;45319;-57
2022/09/26 00:23:35;;;;;;;;;1.50;1.25;;;;;16.73;40.76;100876.34;5062617;28;45319;-57
2022/09/26 00:26:01;;;;;;;;;1.00;1.00;;;;;16.70;40.40;100876.47;5044161;28;45227;-57
2022/09/26 00:28:26;;;;;;;;;1.00;1.00;;;;;16.67;40.46;100881.03;5062046;28;46210;-56
2022/09/26 00:30:52;;;;;;;;;0.50;0.50;;;;;16.65;40.73;100872.25;5044365;28;45432;-56
2022/09/26 00:33:18;;;;;;;;;1.00;1.00;;;;;16.58;40.89;100861.88;5062395;28;45435;-57
2022/09/26 00:35:53;;;;;;;;;1.00;1.00;;;;;16.59;40.78;100857.44;5062282;28;45237;-57
2022/09/26 00:38:18;;;;;;;;;1.00;1.00;;;;;16.56;40.73;100860.19;5062148;28;45434;-57
2022/09/26 00:40:45;;;;;;;;;1.00;1.00;;;;;16.53;40.81;100855.88;5061790;28;45338;-58
2022/09/26 00:43:32;;;;;;;;;2.00;0.25;;;;;16.52;40.85;100848.84;5044183;28;45371;-58
2022/09/26 00:46:03;;;;;;;;;1.00;1.00;;;;;16.51;41.00;100852.41;5062138;28;45430;-58
2022/09/26 00:48:30;;;;;;;;;0.50;0.00;;;;;16.49;40.92;100846.31;5058891;28;46501;-57
2022/09/26 00:50:56;;;;;;;;;4.00;2.50;;;;;16.47;40.78;100850.81;5041893;28;45461;-58
2022/09/26 00:53:27;;;;;;;;;3.25;2.50;;;;;16.46;41.03;100845.56;5041845;28;45355;-58
2022/09/26 00:56:02;;;;;;;;;2.00;2.00;;;;;16.42;40.98;100839.50;5041880;28;45352;-58
2022/09/26 00:58:48;;;;;;;;;1.00;1.00;;;;;16.39;41.08;100839.63;5045500;28;46088;-58
2022/09/26 01:01:15;;;;;;;;;3.25;2.00;;;;;16.36;41.38;100834.41;5061732;28;45343;-58
2022/09/26 01:03:43;;;;;;;;;2.75;2.75;;;;;16.33;41.30;100829.25;5061744;28;45321;-58
2022/09/26 01:06:09;;;;;;;;;1.00;1.00;;;;;16.34;41.35;100833.59;5061520;28;45393;-58
2022/09/26 01:08:40;;;;;;;;;2.00;2.00;;;;;16.32;41.47;100835.47;5061819;28;45217;-58
2022/09/26 01:11:06;;;;;;;;;2.00;2.00;;;;;16.32;41.37;100827.50;5061666;28;45351;-58
2022/09/26 01:13:35;;;;;;;;;3.00;2.00;;;;;16.31;41.49;100831.06;5061928;28;45245;-58
2022/09/26 01:16:01;;;;;;;;;3.75;3.75;;;;;16.30;41.40;100827.56;5061644;28;45562;-58
2022/09/26 01:18:27;;;;;;;;;3.25;3.25;;;;;16.30;41.48;100822.28;5061309;28;46526;-58
2022/09/26 01:21:37;;;;;;;;;3.00;3.00;;;;;16.29;41.25;100824.94;5061413;28;45257;-58
2022/09/26 01:24:28;;;;;;;;;5.00;4.00;;;;;16.27;41.91;100826.81;5061435;28;45268;-58
2022/09/26 01:27:12;;;;;;;;;3.50;3.50;;;;;16.24;41.56;100828.63;5058713;28;45542;-58
2022/09/26 01:30:04;;;;;;;;;3.50;3.50;;;;;16.23;41.76;100826.06;5060705;28;45311;-58
2022/09/26 01:32:48;;;;;;;;;5.00;3.25;;;;;16.22;41.71;100826.97;5061198;28;45474;-58
2022/09/26 01:35:44;;;;;;;;;4.25;3.00;;;;;16.17;41.71;100824.47;5061463;28;45453;-58
2022/09/26 01:38:31;;;;;;;;;4.00;2.25;;;;;16.13;41.96;100819.38;5061190;28;45313;-58
2022/09/26 01:41:19;;;;;;;;;3.00;3.00;;;;;16.09;42.29;100816.81;5060837;28;46198;-58
2022/09/26 01:44:24;;;;;;;;;3.75;3.00;;;;;16.03;42.04;100806.41;5060757;28;45348;-58
2022/09/26 01:47:04;;;;;;;;;8.75;5.50;;;;;16.03;42.58;100811.72;5061183;28;45327;-58
2022/09/26 01:49:39;;;;;;;;;4.25;2.75;;;;;16.01;42.51;100810.03;5050680;28;45340;-58
2022/09/26 01:52:18;;;;;;;;;3.25;3.25;;;;;15.93;42.31;100805.88;5040686;28;45412;-58
2022/09/26 01:55:13;;;;;;;;;4.75;4.75;;;;;15.95;42.52;100812.91;5022880;28;45369;-58
2022/09/26 01:57:50;;;;;;;;;5.00;4.00;;;;;15.92;42.47;100805.94;5033921;28;45541;-59
2022/09/26 02:00:17;;;;;;;;;5.00;4.75;;;;;15.88;42.19;100801.69;5060111;28;45326;-58
2022/09/26 02:02:46;;;;;;;;;7.25;4.00;;;;;15.86;42.33;100791.13;5060634;28;45385;-58
2022/09/26 02:05:19;;;;;;;;;2.75;2.75;;;;;15.85;42.27;100793.84;5060665;28;45241;-58
2022/09/26 02:07:55;;;;;;;;;2.75;2.75;;;;;15.82;42.59;100781.53;5060815;28;45233;-58
2022/09/26 02:10:41;;;;;;;;;4.00;2.75;;;;;15.80;42.33;100778.06;5060667;28;45562;-59
2022/09/26 02:13:16;;;;;;;;;2.75;2.75;;;;;15.77;42.77;100778.16;5060371;28;45330;-58
2022/09/26 02:15:46;;;;;;;;;3.50;3.50;;;;;15.77;42.59;100776.41;5060766;28;45261;-58
2022/09/26 02:18:17;;;;;;;;;1.75;1.75;;;;;15.75;42.72;100770.28;5060513;28;45281;-58
2022/09/26 02:20:54;;;;;;;;;2.00;2.00;;;;;15.72;43.07;100770.41;5060534;28;45244;-58
2022/09/26 02:23:20;;;;;;;;;4.25;1.75;;;;;15.70;42.87;100769.56;5060327;28;46656;-59
2022/09/26 02:25:46;;;;;;;;;3.25;3.25;;;;;15.66;43.00;100760.00;5060316;28;45333;-58
2022/09/26 02:28:13;;;;;;;;;3.50;3.50;;;;;15.66;43.08;100760.00;5060429;28;45399;-58
2022/09/26 02:30:40;;;;;;;;;3.00;3.00;;;;;15.56;42.91;100738.28;5060375;28;45320;-58
2022/09/26 02:33:06;;;;;;;;;2.00;2.00;;;;;15.60;43.14;100745.19;5060143;28;47004;-58
2022/09/26 02:38:16;;;;;;;;;4.25;3.00;;;;;15.55;42.98;100744.50;5060598;28;45232;-58
2022/09/26 02:41:21;;;;;;;;;4.75;1.75;;;;;15.52;43.25;100741.97;5040975;28;45380;-58
2022/09/26 02:43:56;;;;;;;;;2.50;2.50;;;;;15.50;43.32;100733.19;5041831;28;46072;-57
2022/09/26 02:46:45;;;;;;;;;4.25;2.00;;;;;15.47;43.42;100729.78;5060126;28;45311;-58
2022/09/26 02:49:17;;;;;;;;;3.00;2.75;;;;;15.45;43.44;100727.19;5051935;28;45400;-58
2022/09/26 02:52:14;;;;;;;;;1.50;1.50;;;;;15.43;43.45;100721.06;5039882;28;45253;-61
2022/09/26 02:55:04;;;;;;;;;3.50;2.50;;;;;15.41;43.33;100715.00;5039327;28;46021;-59
2022/09/26 02:57:44;;;;;;;;;2.50;2.50;;;;;15.38;43.18;100700.06;5042182;28;45273;-58
2022/09/26 03:00:16;;;;;;;;;4.00;3.00;;;;;15.34;43.50;100694.94;5042013;28;45274;-58
2022/09/26 03:02:52;;;;;;;;;3.25;1.50;;;;;15.32;43.29;100691.47;5059323;28;45237;-58
2022/09/26 03:05:28;;;;;;;;;3.50;2.50;;;;;15.27;43.54;100676.63;5041877;28;46683;-58
2022/09/26 03:08:15;;;;;;;;;3.00;1.50;;;;;15.27;43.83;100671.31;5041784;28;45262;-58
2022/09/26 03:10:41;;;;;;;;;1.50;1.50;;;;;15.25;43.53;100667.00;5060057;28;45312;-58
2022/09/26 03:13:10;;;;;;;;;1.75;0.75;;;;;15.26;43.59;100674.88;5059634;28;45348;-58
2022/09/26 03:15:39;;;;;;;;;2.00;0.75;;;;;15.24;44.14;100657.31;5059245;28;45443;-58
2022/09/26 03:18:09;;;;;;;;;1.75;1.75;;;;;15.23;43.78;100668.81;5059302;28;45359;-58
2022/09/26 03:20:35;;;;;;;;;0.50;0.50;;;;;15.19;43.78;100659.25;5059841;28;45251;-58
2022/09/26 03:23:02;;;;;;;;;1.50;1.50;;;;;15.16;43.79;100651.44;5059927;28;46149;-58
2022/09/26 03:25:28;;;;;;;;;1.50;1.50;;;;;15.08;44.12;100641.97;5059558;28;46216;-58
2022/09/26 03:27:54;;;;;;;;;1.50;0.50;;;;;15.09;43.65;100648.13;5059264;28;45190;-56
2022/09/26 03:30:21;;;;;;;;;4.50;2.00;;;;;14.92;44.10;100619.63;5059869;28;45444;-57
2022/09/26 03:32:47;;;;;;;;;1.50;1.50;;;;;15.06;44.32;100640.31;5059609;28;45530;-57
2022/09/26 03:35:13;;;;;;;;;1.50;1.50;;;;;15.03;44.57;100636.00;5059418;28;45510;-58
2022/09/26 03:37:38;;;;;;;;;0.75;0.50;;;;;15.03;44.18;100637.75;5059685;28;45460;-58
2022/09/26 03:40:09;;;;;;;;;3.00;1.75;;;;;15.01;43.91;100635.16;5059366;28;45177;-57
2022/09/26 03:42:35;;;;;;;;;1.50;1.50;;;;;14.99;44.29;100634.34;5059459;28;45277;-58
2022/09/26 03:45:02;;;;;;;;;2.00;1.50;;;;;14.99;43.90;100628.19;5041121;28;46405;-58
2022/09/26 03:47:28;;;;;;;;;2.00;2.00;;;;;14.95;44.03;100623.03;5024706;28;45392;-57
2022/09/26 03:49:54;;;;;;;;;3.00;2.25;;;;;14.93;44.29;100624.84;5044605;28;45242;-57
2022/09/26 03:52:19;;;;;;;;;2.00;2.00;;;;;14.92;44.06;100614.31;5042082;28;45437;-56
2022/09/26 03:54:45;;;;;;;;;2.75;2.75;;;;;14.94;44.28;100612.47;5024807;28;45415;-55
2022/09/26 03:57:14;;;;;;;;;1.25;1.25;;;;;14.92;44.05;100609.03;5042864;28;45167;-56
2022/09/26 03:59:39;;;;;;;;;1.00;1.00;;;;;14.91;44.06;100602.00;5057172;28;45506;-56
2022/09/26 04:02:05;;;;;;;;;2.00;2.00;;;;;14.90;44.04;100593.19;5062956;28;45323;-57
2022/09/26 04:04:31;;;;;;;;;3.50;2.25;;;;;14.89;43.88;100596.78;5062210;28;45829;-57
2022/09/26 04:06:56;;;;;;;;;1.50;1.50;;;;;14.88;44.60;100592.41;5062885;28;45266;-56
2022/09/26 04:09:23;;;;;;;;;0.00;0.00;;;;;14.89;44.46;100588.84;5062768;28;45330;-57
2022/09/26 04:11:48;;;;;;;;;7.00;4.00;;;;;14.90;44.48;100593.19;5062683;28;45312;-56
2022/09/26 04:14:14;;;;;;;;;3.00;2.50;;;;;14.91;43.88;100583.47;5062226;28;45973;-56
2022/09/26 04:16:39;;;;;;;;;2.25;2.25;;;;;14.89;44.13;100572.97;5062964;28;45147;-56
2022/09/26 04:19:04;;;;;;;;;2.50;1.50;;;;;14.93;43.90;100573.69;5062334;28;45290;-56
2022/09/26 04:21:30;;;;;;;;;2.25;2.00;;;;;14.93;43.99;100566.63;5062609;28;45304;-58
2022/09/26 04:23:55;;;;;;;;;0.50;0.50;;;;;14.91;44.31;100549.94;5044031;28;47077;-56
2022/09/26 04:26:22;;;;;;;;;2.75;1.50;;;;;14.89;44.58;100550.91;5062482;28;45218;-56
2022/09/26 04:28:49;;;;;;;;;1.50;0.75;;;;;14.90;44.80;100552.66;5062275;28;45470;-57
2022/09/26 04:31:15;;;;;;;;;2.25;2.25;;;;;14.91;44.26;100543.81;5062363;28;45326;-57
2022/09/26 04:33:40;;;;;;;;;2.00;0.50;;;;;14.91;44.40;100541.16;5061947;28;45335;-57
2022/09/26 04:36:11;;;;;;;;;3.75;1.50;;;;;14.91;44.88;100533.22;5044124;28;45294;-58
2022/09/26 04:38:36;;;;;;;;;1.00;1.00;;;;;14.89;44.62;100527.09;5046675;28;45229;-58
2022/09/26 04:41:04;;;;;;;;;2.50;1.50;;;;;14.87;44.85;100519.22;5042138;28;45384;-58
2022/09/26 04:43:29;;;;;;;;;0.75;0.75;;;;;14.87;44.64;100511.28;5041604;28;46184;-58
2022/09/26 04:45:55;;;;;;;;;1.25;1.25;;;;;14.88;44.42;100510.38;5041942;28;45376;-57
2022/09/26 04:48:20;;;;;;;;;0.50;0.50;;;;;14.89;44.49;100512.13;5047738;28;45235;-58
2022/09/26 04:50:46;;;;;;;;;3.50;2.00;;;;;14.84;44.95;100497.31;5042081;28;45452;-58
2022/09/26 04:53:12;;;;;;;;;2.00;2.00;;;;;14.88;44.79;100501.56;5041742;28;46300;-58
2022/09/26 04:55:37;;;;;;;;;1.75;1.00;;;;;14.84;44.83;100492.91;5042089;28;45325;-58
2022/09/26 04:58:03;;;;;;;;;1.25;1.25;;;;;14.86;44.71;100495.47;5024530;28;45355;-57
2022/09/26 05:00:28;;;;;;;;;3.50;2.00;;;;;14.85;44.82;100499.03;5061732;28;45883;-58
2022/09/26 05:02:54;;;;;;;;;1.75;1.00;;;;;14.79;44.75;100477.19;5060723;28;47158;-57
2022/09/26 05:05:20;;;;;;;;;2.00;2.00;;;;;14.74;44.92;100468.56;5061968;28;45328;-57
2022/09/26 05:07:45;;;;;;;;;2.00;2.00;;;;;14.72;44.56;100467.72;5061877;28;45298;-57
2022/09/26 05:10:11;;;;;;;;;2.00;2.00;;;;;14.69;44.86;100478.44;5061724;28;45485;-58
2022/09/26 05:12:38;;;;;;;;;2.25;2.00;;;;;14.69;45.21;100469.63;5061533;28;46064;-58
2022/09/26 05:15:07;;;;;;;;;2.00;2.00;;;;;14.72;45.43;100469.53;5061760;28;45299;-58
2022/09/26 05:17:36;;;;;;;;;1.00;1.00;;;;;14.69;45.44;100466.97;5061163;28;45332;-57
2022/09/26 05:20:07;;;;;;;;;3.00;3.00;;;;;14.69;45.54;100461.69;5061509;28;45391;-56
2022/09/26 05:22:33;;;;;;;;;3.00;2.25;;;;;14.67;45.60;100463.53;5060961;28;45732;-57
2022/09/26 05:27:42;;;;;;;;;2.75;2.75;;;;;14.61;45.26;100441.63;5061560;28;45364;-57
2022/09/26 05:30:07;;;;;;;;;1.25;1.25;;;;;14.57;45.63;100426.81;5043215;28;45271;-57
2022/09/26 05:32:33;;;;;;;;;1.75;1.75;;;;;14.56;45.45;100437.44;5061223;28;46203;-56
2022/09/26 05:34:58;;;;;;;;;2.00;2.00;;;;;14.55;45.72;100427.78;5061075;28;45391;-57
2022/09/26 05:37:23;;;;;;;;;2.50;2.00;;;;;14.55;45.27;100433.94;5061111;28;45293;-57
2022/09/26 05:42:33;;;;;;;;;2.75;2.75;;;;;14.52;45.08;100423.47;5041122;28;45393;-56
2022/09/26 05:45:02;;;;;;;;;2.00;2.00;;;;;14.54;45.80;100428.69;5040782;28;45211;-57
2022/09/26 05:47:31;;;;;;;;;4.25;4.00;;;;;14.47;45.68;100417.47;5041259;28;45289;-57
2022/09/26 05:49:56;;;;;;;;;2.00;2.00;;;;;14.46;45.39;100427.19;5047064;28;45370;-58
2022/09/26 05:52:22;;;;;;;;;1.50;1.25;;;;;14.44;45.57;100425.53;5040949;28;45385;-58
2022/09/26 05:54:47;;;;;;;;;2.75;2.50;;;;;14.38;45.72;100417.81;5040964;28;45258;-57
2022/09/26 05:57:13;;;;;;;;;5.00;2.00;;;;;14.39;45.54;100417.75;5040907;28;45384;-57
2022/09/26 05:59:38;;;;;;;;;3.00;1.25;;;;;14.39;45.57;100419.50;5054786;28;48677;-57
2022/09/26 06:02:05;;;;;;;;;3.00;3.00;;;;;14.38;46.09;100410.72;5060734;28;45996;-57
2022/09/26 06:04:31;;;;;;;;;2.00;2.00;;;;;14.33;45.58;100412.69;5060309;28;45164;-57
2022/09/26 06:06:56;;;;;;;;;2.00;2.00;;;;;14.40;46.11;100418.59;5042930;28;45278;-57
2022/09/26 06:09:22;;;;;;;;;4.00;4.00;;;;;14.35;45.51;100402.94;5060667;28;45184;-56
2022/09/26 06:11:47;;;;;;;;;2.50;2.50;;;;;14.38;45.96;100409.88;5060763;28;45221;-56
2022/09/26 06:14:12;;;;;;;;;6.00;2.00;;;;;14.37;46.10;100410.78;5042178;28;45266;-57
2022/09/26 06:16:38;;;;;;;;;2.00;1.00;;;;;14.40;45.70;100402.75;5042772;28;45250;-55
2022/09/26 06:19:03;;;;;;;;;3.50;2.00;;;;;14.37;45.72;100402.88;5060095;28;45444;-55
2022/09/26 06:21:28;;;;;;;;;2.00;2.00;;;;;14.39;45.67;100403.66;5060498;28;46055;-55
2022/09/26 06:23:54;;;;;;;;;2.00;2.00;;;;;14.40;45.99;100400.09;5060513;28;45613;-55
2022/09/26 06:26:22;;;;;;;;;2.00;2.00;;;;;14.43;45.91;100400.84;5060706;28;45472;-55
2022/09/26 06:28:59;;;;;;;;;4.75;1.75;;;;;14.51;46.10;100397.09;5060279;28;45249;-54
2022/09/26 06:31:25;;;;;;;;;3.50;2.00;;;;;14.52;46.38;100390.88;5060408;28;45917;-55
2022/09/26 06:33:52;;;;;;;;;3.50;2.25;;;;;14.49;45.98;100390.97;5060008;28;45178;-56
2022/09/26 06:36:18;;;;;;;;;2.00;2.00;;;;;14.46;46.17;100391.94;5060413;28;45290;-58
2022/09/26 06:38:43;;;;;;;;;2.00;2.00;;;;;14.45;46.32;100393.75;5041722;28;45415;-55
2022/09/26 06:41:09;;;;;;;;;2.00;2.00;;;;;14.46;45.81;100394.59;5060306;28;46912;-56
2022/09/26 06:43:35;;;;;;;;;2.75;2.00;;;;;14.47;46.28;100378.66;5059999;28;45389;-56
2022/09/26 06:46:01;;;;;;;;;3.00;3.00;;;;;14.45;45.87;100384.94;5060277;28;45494;-56
2022/09/26 06:48:26;;;;;;;;;2.50;2.00;;;;;14.45;46.28;100375.25;5057090;28;45290;-55
2022/09/26 06:50:54;;;;;;;;;3.00;2.50;;;;;14.46;46.44;100370.81;5040004;28;45352;-56
2022/09/26 06:53:20;;;;;;;;;2.00;2.00;;;;;14.46;46.08;100370.81;5039858;28;45237;-56
2022/09/26 06:55:45;;;;;;;;;1.25;1.25;;;;;14.46;46.25;100361.09;5039912;28;45229;-56
2022/09/26 06:58:11;;;;;;;;;1.50;1.00;;;;;14.46;46.59;100365.50;5041508;28;45217;-57
2022/09/26 07:00:38;;;;;;;;;2.00;1.00;;;;;14.50;46.46;100382.97;5060139;28;46039;-56
2022/09/26 07:03:04;;;;;;;;;3.00;3.00;;;;;14.44;46.34;100359.44;5059706;28;45459;-56
2022/09/26 07:05:30;;;;;;;;;3.00;3.00;;;;;14.52;46.84;100354.72;5060215;28;45436;-56
2022/09/26 07:07:56;;;;;;;;;2.50;2.00;;;;;14.51;46.54;100347.69;5059874;28;45547;-56
2022/09/26 07:10:23;;;;;;;;;2.50;2.50;;;;;14.53;46.10;100348.53;5059690;28;46312;-56
2022/09/26 07:12:49;;;;;;;;;5.00;3.00;;;;;14.52;46.01;100349.44;5059425;28;45388;-56
2022/09/26 07:15:17;;;;;;;;;3.75;3.50;;;;;14.54;46.67;100344.97;5059975;28;45209;-55
2022/09/26 07:17:45;;;;;;;;;2.00;2.00;;;;;14.58;46.30;100341.28;5059410;28;45546;-55
2022/09/26 07:20:14;;;;;;;;;5.00;2.75;;;;;14.65;46.37;100338.44;5059489;28;48190;-55
2022/09/26 07:22:42;;;;;;;;;1.50;1.50;;;;;14.62;46.02;100334.94;5041313;28;45292;-55
2022/09/26 07:25:08;;;;;;;;;3.50;2.50;;;;;14.71;46.42;100317.06;5059723;28;45334;-56
2022/09/26 07:27:33;;;;;;;;;0.50;0.50;;;;;14.69;46.57;100310.94;5062686;28;45294;-55
2022/09/26 07:29:59;;;;;;;;;2.00;2.00;;;;;14.71;46.71;100311.75;5063037;28;46322;-56
2022/09/26 07:32:24;;;;;;;;;3.50;2.00;;;;;14.69;46.49;100308.31;5045005;28;45585;-55
2022/09/26 07:34:52;;;;;;;;;3.00;2.75;;;;;14.77;46.79;100303.59;5063273;28;45466;-55
2022/09/26 07:37:17;;;;;;;;;3.75;2.75;;;;;14.77;46.70;100295.66;5062840;28;45461;-55
2022/09/26 07:39:43;;;;;;;;;2.25;2.00;;;;;14.84;46.41;100291.88;5062654;28;46286;-55
2022/09/26 07:42:08;;;;;;;;;3.00;2.00;;;;;14.82;46.87;100306.91;5044759;28;45285;-54
2022/09/26 07:44:34;;;;;;;;;1.50;1.50;;;;;14.83;46.29;100297.19;5045033;28;45423;-56
2022/09/26 07:52:28;;;;;;;;;1.25;1.25;;;;;14.85;46.80;100271.53;5027604;28;45273;-52
2022/09/26 07:54:53;;;;;;;;;3.25;1.00;;;;;14.83;47.06;100268.97;5042714;28;45540;-54
2022/09/26 07:57:18;;;;;;;;;2.00;2.00;;;;;14.89;46.82;100274.03;5024619;28;45504;-55
2022/09/26 07:59:44;;;;;;;;;3.50;2.00;;;;;14.82;46.90;100261.94;5057531;28;45959;-54
2022/09/26 08:02:24;;;;;;;;;2.00;1.75;;;;;14.84;46.53;100256.59;5062816;28;45244;-54
2022/09/26 08:04:50;;;;;;;;;2.00;2.00;;;;;14.86;47.18;100258.25;5044344;28;45367;-55
2022/09/26 08:07:15;;;;;;;;;1.00;1.00;;;;;14.90;47.00;100254.56;5062787;28;45272;-55
2022/09/26 08:09:41;;;;;;;;;2.75;2.50;;;;;14.94;46.59;100260.59;5062495;28;46265;-54
2022/09/26 08:12:06;;;;;;;;;0.00;0.00;;;;;14.95;46.71;100249.09;5062765;28;45391;-54
2022/09/26 08:14:32;;;;;;;;;1.50;1.50;;;;;14.96;46.70;100261.41;5062040;28;49880;-53
2022/09/26 08:16:57;;;;;;;;;2.50;1.50;;;;;15.00;46.77;100252.41;5062653;28;45556;-54
2022/09/26 08:19:24;;;;;;;;;1.75;1.75;;;;;15.03;46.47;100243.47;5043869;28;50520;-56
2022/09/26 08:21:49;;;;;;;;;2.25;1.50;;;;;15.08;46.53;100245.03;5062604;28;45345;-55
2022/09/26 08:24:15;;;;;;;;;3.00;2.50;;;;;15.10;46.79;100237.03;5062208;28;45191;-53
2022/09/26 08:26:40;;;;;;;;;1.25;1.25;;;;;15.15;46.45;100237.69;5062741;28;45233;-52
2022/09/26 08:29:11;;;;;;;;;1.50;0.75;;;;;15.14;46.88;100230.69;5043966;28;45591;-54
2022/09/26 08:31:40;;;;;;;;;2.00;2.00;;;;;15.16;46.89;100244.72;5044284;28;45327;-53
2022/09/26 08:34:06;;;;;;;;;1.75;1.75;;;;;15.19;46.73;100231.34;5062014;28;45228;-54
2022/09/26 08:36:32;;;;;;;;;1.00;0.50;;;;;15.18;46.51;100226.13;5062323;28;45225;-53
2022/09/26 08:38:58;;;;;;;;;2.00;1.00;;;;;15.22;46.33;100244.47;5042524;28;46370;-55
2022/09/26 08:41:39;;;;;;;;;1.50;1.50;;;;;15.24;46.23;100225.88;5062298;28;45249;-54
2022/09/26 08:44:29;;;;;;;;;1.75;1.25;;;;;15.24;46.49;100216.16;5062002;28;45224;-55
2022/09/26 08:47:03;;;;;;;;;2.00;1.25;;;;;15.25;46.61;100225.78;5062009;28;45371;-54
2022/09/26 08:49:43;;;;;;;;;3.00;3.00;;;;;15.31;46.65;100213.22;5051309;28;46155;-54
2022/09/26 08:52:33;;;;;;;;;0.75;0.75;;;;;15.27;46.54;100199.28;5041724;28;45498;-54
2022/09/26 08:55:06;;;;;;;;;1.75;0.50;;;;;15.31;46.03;100192.94;5041944;28;45388;-55
2022/09/26 08:57:43;;;;;;;;;0.00;0.00;;;;;15.39;46.21;100203.19;5041621;28;45245;-55
2022/09/26 09:00:23;;;;;;;;;1.50;1.50;;;;;15.47;46.22;100195.78;5041941;28;46441;-52
2022/09/26 09:03:10;;;;;;;;;4.00;1.75;;;;;15.58;46.28;100204.13;5061578;28;45250;-53
2022/09/26 09:05:45;;;;;;;;;0.50;0.50;;;;;15.68;46.76;100183.38;5062042;28;45316;-53
2022/09/26 09:08:24;;;;;;;;;2.75;2.75;;;;;15.75;46.48;100191.94;5061565;28;45222;-55
2022/09/26 09:11:19;;;;;;;;;1.25;1.25;;;;;15.76;45.96;100175.09;5061634;28;46419;-54
2022/09/26 09:13:53;;;;;;;;;0.75;0.75;;;;;15.85;45.99;100171.22;5056549;28;45655;-56
2022/09/26 09:16:43;;;;;;;;;1.50;1.50;;;;;15.87;45.90;100170.22;5043518;28;45177;-53
2022/09/26 09:19:37;;;;;;;;;1.75;0.75;;;;;15.89;46.14;100146.28;5043167;28;45302;-52
2022/09/26 09:22:09;;;;;;;;;2.25;1.75;;;;;16.04;46.28;100155.34;5061521;28;46464;-54
2022/09/26 09:24:57;;;;;;;;;1.75;1.75;;;;;16.09;45.90;100150.69;5061266;28;45283;-54
2022/09/26 09:27:43;;;;;;;;;2.00;2.00;;;;;16.21;45.87;100136.84;5061350;28;45287;-52
2022/09/26 09:30:15;;;;;;;;;1.00;1.00;;;;;16.24;45.60;100142.00;5061352;28;45304;-53
2022/09/26 09:32:50;;;;;;;;;1.00;1.00;;;;;16.32;45.74;100146.09;5061188;28;45328;-54
2022/09/26 09:35:21;;;;;;;;;1.00;1.00;;;;;16.33;45.18;100118.66;5061259;28;45304;-56
2022/09/26 09:37:50;;;;;;;;;1.50;1.50;;;;;16.39;45.73;100156.31;5061518;28;45289;-54
2022/09/26 09:40:30;;;;;;;;;2.25;1.25;;;;;16.45;45.26;100120.69;5061059;28;45307;-52
2022/09/26 09:43:25;;;;;;;;;1.00;1.00;;;;;16.41;45.36;100112.03;5061023;28;45321;-53
2022/09/26 09:45:56;;;;;;;;;1.00;1.00;;;;;16.48;45.09;100093.19;5051801;28;45241;-52
2022/09/26 09:48:26;;;;;;;;;1.00;1.00;;;;;16.54;44.82;100100.81;5059623;28;45339;-53
2022/09/26 09:51:17;;;;;;;;;2.50;2.50;;;;;16.66;45.04;100099.34;5041016;28;45261;-50
2022/09/26 09:53:57;;;;;;;;;1.00;1.00;;;;;16.69;44.50;100092.09;5040690;28;46032;-53
2022/09/26 09:56:36;;;;;;;;;2.00;0.00;;;;;16.78;44.77;100077.53;5040799;28;45332;-52
2022/09/26 09:59:31;;;;;;;;;1.00;1.00;;;;;16.77;44.90;100077.59;5050128;28;45313;-53
2022/09/26 10:02:15;;;;;;;;;2.00;1.00;;;;;16.75;44.57;100061.75;4989651;28;46095;-54
2022/09/26 10:04:45;;;;;;;;;1.00;1.00;;;;;16.83;44.15;100066.66;5044389;28;46382;-53
2022/09/26 10:07:11;;;;;;;;;0.75;0.75;;;;;16.86;44.40;100062.06;5040334;28;45163;-54
2022/09/26 10:09:42;;;;;;;;;0.00;0.00;;;;;16.87;44.05;100069.09;5040868;28;45371;-53
2022/09/26 10:12:22;;;;;;;;;1.00;1.00;;;;;16.89;44.31;100067.22;5040620;28;45440;-54
2022/09/26 10:15:18;;;;;;;;;1.00;0.25;;;;;16.93;44.20;100043.19;5040482;28;46069;-52
2022/09/26 10:18:02;;;;;;;;;1.75;1.00;;;;;17.04;43.81;100041.72;5040431;28;45285;-53
2022/09/26 10:20:41;;;;;;;;;1.00;1.00;;;;;16.99;43.88;100037.56;5040558;28;45234;-54
2022/09/26 10:23:19;;;;;;;;;1.00;1.00;;;;;17.01;43.94;100025.09;5047810;28;45337;-52
2022/09/26 10:25:47;;;;;;;;;1.00;1.00;;;;;17.01;43.51;100022.44;5060450;28;45233;-54
2022/09/26 10:28:54;;;;;;;;;1.25;1.25;;;;;17.01;43.24;100025.09;5060211;28;45400;-53
2022/09/26 10:31:35;;;;;;;;;1.00;1.00;;;;;16.93;43.50;100021.97;5057501;28;45363;-54
2022/09/26 10:34:22;;;;;;;;;2.00;1.00;;;;;16.93;43.41;100014.00;5042097;28;45364;-53
2022/09/26 10:36:48;;;;;;;;;2.00;1.00;;;;;16.94;43.54;100011.25;5028583;28;46898;-53
2022/09/26 10:42:19;;;;;;;;;1.75;0.50;;;;;16.82;43.61;99986.22;5037335;28;45321;-53
2022/09/26 10:44:47;;;;;;;;;1.25;1.25;;;;;16.84;43.67;99972.84;5040027;28;45158;-53
2022/09/26 10:47:26;;;;;;;;;1.00;1.00;;;;;16.73;44.00;99965.47;5039869;28;46141;-53
2022/09/26 10:49:57;;;;;;;;;3.50;0.00;;;;;16.70;43.91;99962.97;5020054;28;45350;-56
2022/09/26 10:52:35;;;;;;;;;2.25;0.75;;;;;16.70;43.88;99984.19;5019112;28;45342;-55
2022/09/26 10:55:04;;;;;;;;;2.00;2.00;;;;;16.77;44.03;99988.25;5019935;28;45195;-55
2022/09/26 10:57:46;;;;;;;;;1.50;1.50;;;;;16.75;43.81;99960.94;5019581;28;45559;-55
2022/09/26 11:00:18;;;;;;;;;2.00;1.00;;;;;16.76;43.91;99937.94;5037958;28;45292;-52
2022/09/26 11:02:46;;;;;;;;;1.00;1.00;;;;;16.79;43.90;99958.97;5039605;28;45345;-53
2022/09/26 11:08:04;;;;;;;;;0.75;0.75;;;;;16.68;43.94;99954.25;5039580;28;45761;-53
2022/09/26 11:10:31;;;;;;;;;1.00;1.00;;;;;16.64;44.08;99952.69;5039842;28;45266;-52
2022/09/26 11:12:59;;;;;;;;;1.00;1.00;;;;;16.60;44.47;99940.53;5039676;28;45143;-53
2022/09/26 11:15:24;;;;;;;;;1.00;1.00;;;;;16.60;45.05;99948.47;5039651;28;45408;-54
2022/09/26 11:17:52;;;;;;;;;1.50;1.50;;;;;16.62;44.49;99936.00;5039269;28;46854;-52
2022/09/26 11:20:26;;;;;;;;;0.75;0.75;;;;;16.56;44.62;99963.69;5039482;28;45320;-53
2022/09/26 11:23:18;;;;;;;;;6.75;5.25;;;;;16.50;45.43;99940.13;5038230;28;45463;-53
2022/09/26 11:26:06;;;;;;;;;1.50;1.25;;;;;16.53;45.13;99935.53;5039530;28;45244;-54
2022/09/26 11:28:40;;;;;;;;;2.00;2.00;;;;;16.41;45.56;99926.44;5039230;28;46222;-53
2022/09/26 11:31:34;;;;;;;;;1.00;1.00;;;;;16.39;45.54;99920.34;5039536;28;45276;-54
2022/09/26 11:34:03;;;;;;;;;1.75;1.75;;;;;16.38;46.07;99917.78;5038553;28;45350;-54
2022/09/26 11:36:53;;;;;;;;;0.75;0.75;;;;;16.36;45.84;99911.69;5039379;28;45308;-54
2022/09/26 11:39:33;;;;;;;;;0.75;0.75;;;;;16.22;46.07;99923.84;5045500;28;46395;-55
2022/09/26 11:42:14;;;;;;;;;1.50;0.25;;;;;16.25;46.24;99906.91;5041244;28;45455;-53
2022/09/26 11:44:57;;;;;;;;;1.25;1.25;;;;;16.15;46.53;99910.97;5059589;28;45470;-53
2022/09/26 11:47:59;;;;;;;;;2.75;0.75;;;;;16.05;46.15;99910.56;5041411;28;45334;-52
2022/09/26 11:50:56;;;;;;;;;0.75;0.75;;;;;16.04;46.61;99893.81;5057633;28;45393;-54
2022/09/26 11:53:23;;;;;;;;;2.00;0.50;;;;;15.98;47.14;99899.44;5036409;28;45301;-52
2022/09/26 11:56:06;;;;;;;;;0.50;0.50;;;;;15.79;47.44;99888.88;5059413;28;45218;-54
2022/09/26 11:58:48;;;;;;;;;0.75;0.75;;;;;15.76;47.42;99891.69;5047690;28;45617;-55
2022/09/26 12:01:34;;;;;;;;;3.00;3.00;;;;;15.63;47.92;99869.38;5041057;28;47185;-55
2022/09/26 12:04:36;;;;;;;;;4.25;2.25;;;;;15.46;47.83;99880.75;5040904;28;45663;-55
2022/09/26 12:07:07;;;;;;;;;3.75;1.50;;;;;15.30;47.83;99876.22;5058244;28;45466;-54
2022/09/26 12:10:07;;;;;;;;;1.50;1.00;;;;;15.17;48.56;99856.53;5059139;28;45229;-53